Time;durP1;ratioP1;P1;durP2;ratioP2;P2;SDS_P1;SDS_P2;PMS_P1;PMS_P2;Temp;Humidity;BMP_temperature;BMP_pressure;BME280_temperature;BME280_humidity;BME280_pressure;Samples;Min_cycle;Max_cycle;Signal;HPM_P1;HPM_P2
2021/09/20 00:01:42;;;;;;;2.92;2.63;;;;;;;3.45;62.72;100220.16;5060743;28;20040;-75
2021/09/20 00:04:08;;;;;;;5.07;2.95;;;;;;;3.40;63.29;100215.06;5095549;28;20066;-76
2021/09/20 00:06:34;;;;;;;3.28;2.45;;;;;;;3.37;63.03;100218.66;5077684;28;20036;-75
2021/09/20 00:09:00;;;;;;;2.97;2.65;;;;;;;3.32;63.11;100219.75;5044212;28;20387;-76
2021/09/20 00:11:26;;;;;;;3.58;2.97;;;;;;;3.29;63.42;100230.44;5060855;28;20044;-75
2021/09/20 00:13:52;;;;;;;5.38;2.90;;;;;;;3.19;64.23;100236.97;5077270;28;20047;-75
2021/09/20 00:16:17;;;;;;;3.10;2.80;;;;;;;3.16;64.21;100236.16;5060663;28;20134;-74
2021/09/20 00:18:43;;;;;;;3.20;2.90;;;;;;;3.15;63.92;100237.06;5060523;28;20071;-75
2021/09/20 00:21:09;;;;;;;3.13;2.80;;;;;;;3.12;64.42;100244.22;5060544;28;20452;-75
2021/09/20 00:23:35;;;;;;;5.53;2.70;;;;;;;3.07;64.28;100236.47;5094602;28;20071;-75
2021/09/20 00:26:01;;;;;;;3.03;2.80;;;;;;;3.07;64.06;100240.91;5077103;28;20442;-74
2021/09/20 00:28:27;;;;;;;5.45;2.97;;;;;;;2.99;64.70;100246.44;5060267;28;20051;-76
2021/09/20 00:30:53;;;;;;;3.17;2.67;;;;;;;3.00;64.64;100240.25;5060472;28;20406;-75
2021/09/20 00:33:19;;;;;;;3.45;3.03;;;;;;;3.04;64.72;100241.00;5043879;28;20055;-74
2021/09/20 00:35:44;;;;;;;3.08;2.78;;;;;;;2.98;64.97;100252.66;5043451;28;20055;-74
2021/09/20 00:38:11;;;;;;;3.10;2.80;;;;;;;2.99;64.88;100243.81;5043554;28;20055;-75
2021/09/20 00:40:37;;;;;;;3.67;3.05;;;;;;;2.96;64.67;100243.91;5043745;28;20055;-75
2021/09/20 00:43:03;;;;;;;3.90;3.15;;;;;;;2.88;64.98;100252.09;5043378;28;20042;-74
2021/09/20 00:45:29;;;;;;;5.15;3.30;;;;;;;2.83;65.09;100258.47;5060103;28;20059;-75
2021/09/20 00:47:55;;;;;;;6.28;3.13;;;;;;;2.89;64.81;100263.50;5026741;28;20067;-76
2021/09/20 00:50:21;;;;;;;6.38;3.40;;;;;;;2.75;65.77;100255.22;5043203;28;20097;-76
2021/09/20 00:52:47;;;;;;;3.25;2.90;;;;;;;2.76;64.97;100272.78;5043340;28;20036;-76
2021/09/20 00:55:13;;;;;;;4.82;3.30;;;;;;;2.75;65.30;100273.69;5042998;28;20425;-75
2021/09/20 00:57:40;;;;;;;3.80;2.95;;;;;;;2.74;65.41;100275.44;5059793;28;20048;-75
2021/09/20 01:00:06;;;;;;;3.80;2.90;;;;;;;2.73;64.90;100273.72;5026811;28;20036;-76
2021/09/20 01:02:32;;;;;;;4.30;3.30;;;;;;;2.68;65.69;100276.53;5043123;28;20413;-76
2021/09/20 01:04:58;;;;;;;7.35;3.13;;;;;;;2.79;64.68;100272.69;5059430;28;20036;-75
2021/09/20 01:07:24;;;;;;;4.15;3.03;;;;;;;2.73;64.81;100275.50;5043085;28;20070;-75
2021/09/20 01:09:50;;;;;;;4.97;3.50;;;;;;;2.75;64.83;100284.25;5094203;28;20406;-76
2021/09/20 01:12:16;;;;;;;4.60;3.00;;;;;;;2.80;64.57;100277.03;5075879;28;20075;-75
2021/09/20 01:14:42;;;;;;;6.60;3.38;;;;;;;2.73;64.45;100278.16;5026667;28;20040;-75
2021/09/20 01:17:08;;;;;;;4.25;2.90;;;;;;;2.66;65.23;100278.34;5042782;28;20043;-75
2021/09/20 01:19:34;;;;;;;8.13;3.45;;;;;;;2.73;64.80;100283.44;5042750;28;20059;-76
2021/09/20 01:22:03;;;;;;;5.93;3.30;;;;;;;2.77;64.35;100279.78;5059331;28;20583;-75
2021/09/20 01:24:29;;;;;;;5.43;3.20;;;;;;;2.79;64.49;100278.81;5059655;28;20050;-75
2021/09/20 01:27:01;;;;;;;6.15;3.22;;;;;;;2.82;64.14;100277.84;5026123;28;20036;-75
2021/09/20 01:29:27;;;;;;;3.55;3.08;;;;;;;2.80;64.23;100282.31;5043660;28;20040;-76
2021/09/20 01:31:53;;;;;;;4.25;3.13;;;;;;;2.80;64.37;100277.03;5059361;28;20040;-76
2021/09/20 01:34:19;;;;;;;6.03;3.40;;;;;;;2.78;63.87;100279.72;5042434;28;20139;-76
2021/09/20 01:36:46;;;;;;;3.58;3.25;;;;;;;2.79;63.76;100275.31;5024858;28;20048;-77
2021/09/20 01:39:23;;;;;;;6.03;3.17;;;;;;;2.73;63.82;100275.50;5059128;28;20486;-75
2021/09/20 01:41:50;;;;;;;4.03;3.00;;;;;;;2.72;64.00;100276.44;5043220;28;20040;-76
2021/09/20 01:44:15;;;;;;;5.50;3.30;;;;;;;2.74;64.22;100290.44;5042346;28;20065;-75
2021/09/20 01:46:43;;;;;;;4.05;3.50;;;;;;;2.73;63.87;100288.72;5042281;28;20035;-75
2021/09/20 01:49:09;;;;;;;4.78;3.25;;;;;;;2.73;63.64;100294.84;5042361;28;20044;-76
2021/09/20 01:51:35;;;;;;;4.15;3.63;;;;;;;2.74;63.74;100301.84;5059486;28;20076;-76
2021/09/20 01:54:03;;;;;;;4.65;3.17;;;;;;;2.75;63.92;100297.47;5026390;28;20063;-76
2021/09/20 01:56:29;;;;;;;6.43;3.42;;;;;;;2.73;63.92;100299.28;5042616;28;20126;-76
2021/09/20 01:58:55;;;;;;;3.50;3.17;;;;;;;2.73;63.71;100315.13;5042260;28;20547;-74
2021/09/20 02:01:22;;;;;;;3.75;3.35;;;;;;;2.72;63.68;100308.13;5041997;28;20047;-75
2021/09/20 02:03:52;;;;;;;4.57;3.50;;;;;;;2.72;63.94;100308.13;5075968;28;20040;-75
2021/09/20 02:06:19;;;;;;;5.10;3.35;;;;;;;2.73;63.62;100300.13;5042664;28;20055;-76
2021/09/20 02:08:45;;;;;;;4.72;3.45;;;;;;;2.72;64.00;100305.47;5025611;28;20503;-77
2021/09/20 02:11:10;;;;;;;4.63;3.33;;;;;;;2.67;63.74;100295.94;5041739;28;20044;-77
2021/09/20 02:13:36;;;;;;;4.28;3.25;;;;;;;2.85;63.66;100314.69;5041542;28;20415;-76
2021/09/20 02:16:02;;;;;;;8.27;3.47;;;;;;;2.89;63.73;100305.75;5041537;28;20220;-76
2021/09/20 02:18:28;;;;;;;6.40;4.35;;;;;;;2.95;63.92;100315.28;5058065;28;20043;-76
2021/09/20 02:20:54;;;;;;;3.95;3.40;;;;;;;2.93;63.73;100317.94;5041487;28;20079;-75
2021/09/20 02:23:20;;;;;;;4.03;3.63;;;;;;;2.96;63.61;100315.22;5041381;28;20131;-77
2021/09/20 02:25:46;;;;;;;4.53;3.50;;;;;;;2.98;63.66;100312.53;5058157;28;20044;-75
2021/09/20 02:28:12;;;;;;;8.80;3.67;;;;;;;3.03;63.53;100314.09;5058379;28;20043;-76
2021/09/20 02:30:38;;;;;;;5.32;3.70;;;;;;;3.07;63.55;100314.84;5041445;28;20054;-75
2021/09/20 02:33:04;;;;;;;6.97;3.55;;;;;;;3.13;63.36;100326.09;5074580;28;20036;-76
2021/09/20 02:35:30;;;;;;;4.97;3.53;;;;;;;3.17;63.31;100332.13;5054132;28;20128;-76
2021/09/20 02:37:56;;;;;;;6.20;3.50;;;;;;;3.21;63.38;100335.53;5021199;28;20618;-77
2021/09/20 02:40:22;;;;;;;5.22;3.75;;;;;;;3.27;63.13;100333.56;5037821;28;20072;-76
2021/09/20 02:42:48;;;;;;;4.07;3.67;;;;;;;3.26;63.06;100341.53;5054587;28;20064;-75
2021/09/20 02:45:14;;;;;;;3.15;2.85;;;;;;;3.26;63.18;100328.31;5038114;28;20037;-75
2021/09/20 02:47:40;;;;;;;8.50;3.33;;;;;;;3.24;63.40;100333.66;5037591;28;20146;-76
2021/09/20 02:50:06;;;;;;;12.27;3.72;;;;;;;3.26;63.26;100337.09;5021759;28;20086;-77
2021/09/20 02:52:32;;;;;;;7.80;3.05;;;;;;;3.24;63.58;100343.38;5054535;28;20059;-76
2021/09/20 02:54:58;;;;;;;8.13;3.28;;;;;;;3.10;63.94;100339.41;5021344;28;20036;-77
2021/09/20 02:57:24;;;;;;;7.43;3.80;;;;;;;3.30;63.32;100349.28;5037859;28;20408;-75
2021/09/20 02:59:50;;;;;;;10.80;3.90;;;;;;;3.34;63.37;100337.69;5037953;28;20047;-75
2021/09/20 03:02:16;;;;;;;9.13;3.60;;;;;;;3.48;63.06;100339.88;5037874;28;20075;-75
2021/09/20 03:04:42;;;;;;;13.63;4.15;;;;;;;3.59;62.74;100335.06;5054364;28;20124;-77
2021/09/20 03:07:08;;;;;;;6.65;4.10;;;;;;;3.65;62.71;100334.84;5037596;28;20125;-75
2021/09/20 03:09:34;;;;;;;8.88;3.80;;;;;;;3.74;62.58;100333.66;5037719;28;20044;-77
2021/09/20 03:12:00;;;;;;;14.63;3.90;;;;;;;3.84;62.45;100345.63;5038056;28;20123;-75
2021/09/20 03:14:26;;;;;;;5.75;3.20;;;;;;;3.80;62.33;100343.13;5054333;28;20541;-76
2021/09/20 03:16:52;;;;;;;9.88;4.15;;;;;;;3.86;62.00;100342.91;5070794;28;20064;-74
2021/09/20 03:19:18;;;;;;;5.75;3.90;;;;;;;3.92;62.10;100345.34;5070701;28;20495;-76
2021/09/20 03:21:44;;;;;;;13.45;4.35;;;;;;;4.07;61.62;100344.78;5037809;28;20068;-75
2021/09/20 03:24:10;;;;;;;8.88;3.90;;;;;;;4.18;61.60;100354.09;5037648;28;20411;-78
2021/09/20 03:26:37;;;;;;;25.42;4.40;;;;;;;4.29;61.33;100357.22;5037983;28;20475;-78
2021/09/20 03:29:03;;;;;;;11.75;4.45;;;;;;;4.34;60.99;100349.94;5037689;28;20056;-77
2021/09/20 03:31:29;;;;;;;10.60;3.80;;;;;;;4.41;60.91;100347.94;5021213;28;20472;-77
2021/09/20 03:33:55;;;;;;;9.55;3.83;;;;;;;4.39;60.75;100347.97;5037955;28;20135;-75
2021/09/20 03:36:21;;;;;;;13.45;4.07;;;;;;;4.26;60.88;100352.03;5040573;28;20451;-76
2021/09/20 03:38:46;;;;;;;6.90;3.50;;;;;;;4.04;61.49;100346.69;5092282;28;20119;-76
2021/09/20 03:41:12;;;;;;;4.15;3.13;;;;;;;3.87;62.15;100350.81;5057650;28;20046;-78
2021/09/20 03:43:38;;;;;;;6.82;3.58;;;;;;;3.81;62.23;100350.16;5057542;28;20411;-76
2021/09/20 03:46:04;;;;;;;5.05;3.35;;;;;;;3.84;62.58;100356.22;5074253;28;20107;-76
2021/09/20 03:48:30;;;;;;;5.18;3.10;;;;;;;3.84;62.91;100361.50;5057416;28;20101;-79
2021/09/20 03:50:56;;;;;;;6.15;3.63;;;;;;;3.88;62.72;100346.38;5057738;28;20048;-78
2021/09/20 03:53:22;;;;;;;5.10;3.45;;;;;;;4.01;62.65;100357.38;5057923;28;20085;-80
2021/09/20 03:55:48;;;;;;;3.75;3.10;;;;;;;4.13;62.63;100364.84;5057178;28;20066;-76
2021/09/20 03:58:14;;;;;;;11.25;3.80;;;;;;;4.34;61.89;100357.88;5074206;28;20066;-79
2021/09/20 04:00:40;;;;;;;10.55;3.60;;;;;;;4.42;61.90;100362.88;5060916;28;20046;-75
2021/09/20 04:03:06;;;;;;;6.07;3.60;;;;;;;4.55;61.77;100365.00;5095591;28;20039;-75
2021/09/20 04:05:32;;;;;;;5.80;3.50;;;;;;;4.47;61.68;100355.63;5060763;28;20090;-75
2021/09/20 04:07:57;;;;;;;8.35;3.42;;;;;;;4.55;62.04;100370.31;5027619;28;20051;-77
2021/09/20 04:10:24;;;;;;;4.85;3.40;;;;;;;4.69;61.46;100371.53;5044119;28;20070;-77
2021/09/20 04:12:50;;;;;;;11.52;3.78;;;;;;;4.76;61.45;100378.31;5027638;28;20491;-76
2021/09/20 04:15:15;;;;;;;3.80;3.40;;;;;;;4.91;61.48;100377.72;5060566;28;20047;-75
2021/09/20 04:17:42;;;;;;;5.25;3.67;;;;;;;5.04;60.90;100378.94;5027422;28;20036;-76
2021/09/20 04:20:08;;;;;;;5.22;3.33;;;;;;;5.19;60.88;100365.97;5044245;28;20048;-77
2021/09/20 04:22:34;;;;;;;7.65;3.50;;;;;;;5.44;60.69;100365.81;5060664;28;20078;-76
2021/09/20 04:25:00;;;;;;;5.82;3.10;;;;;;;5.60;60.06;100367.75;5060629;28;20076;-76
2021/09/20 04:27:27;;;;;;;6.18;3.00;;;;;;;5.63;59.74;100374.69;5060603;28;20506;-76
2021/09/20 04:29:53;;;;;;;4.25;3.10;;;;;;;5.50;59.53;100371.72;5027656;28;20050;-75
2021/09/20 04:32:19;;;;;;;4.00;3.50;;;;;;;5.51;59.49;100368.13;5043995;28;20157;-78
2021/09/20 04:34:45;;;;;;;3.80;3.13;;;;;;;5.45;59.60;100363.09;5043459;28;20134;-78
2021/09/20 04:37:11;;;;;;;9.10;4.00;;;;;;;5.47;59.77;100377.16;5060171;28;20552;-76
2021/09/20 04:39:37;;;;;;;6.22;3.53;;;;;;;5.63;59.83;100377.34;5076852;28;20048;-78
2021/09/20 04:42:03;;;;;;;8.80;3.80;;;;;;;5.76;59.42;100367.09;5076986;28;20498;-79
2021/09/20 04:44:29;;;;;;;4.95;4.20;;;;;;;5.98;59.45;100388.25;5060684;28;20044;-78
2021/09/20 04:46:55;;;;;;;11.43;4.53;;;;;;;5.90;58.61;100369.97;5043870;28;20028;-79
2021/09/20 04:49:21;;;;;;;7.28;4.22;;;;;;;6.03;58.71;100379.16;5060028;28;20048;-76
2021/09/20 04:51:47;;;;;;;6.95;4.60;;;;;;;5.97;58.54;100375.91;5076626;28;20039;-78
2021/09/20 04:54:13;;;;;;;8.63;4.82;;;;;;;6.01;58.32;100377.50;5043462;28;20111;-76
2021/09/20 04:56:39;;;;;;;8.60;4.45;;;;;;;6.00;58.41;100379.28;5076481;28;20047;-75
2021/09/20 04:59:05;;;;;;;7.43;4.60;;;;;;;6.12;58.12;100384.97;5026279;28;20044;-76
2021/09/20 05:01:31;;;;;;;7.55;4.50;;;;;;;6.31;57.73;100386.72;5059445;28;20090;-78
2021/09/20 05:03:57;;;;;;;7.10;4.55;;;;;;;6.41;57.27;100381.84;5042970;28;20502;-75
2021/09/20 05:06:22;;;;;;;5.95;4.63;;;;;;;6.46;57.71;100390.47;5043025;28;20067;-77
2021/09/20 05:08:49;;;;;;;7.38;5.38;;;;;;;6.53;56.97;100391.03;5076188;28;20517;-77
2021/09/20 05:11:14;;;;;;;6.93;4.70;;;;;;;6.62;57.38;100384.44;5042511;28;20070;-77
2021/09/20 05:13:40;;;;;;;9.35;6.45;;;;;;;6.68;56.56;100384.16;5026551;28;20127;-75
2021/09/20 05:16:06;;;;;;;10.57;6.47;;;;;;;6.60;56.82;100388.97;5026068;28;20044;-77
2021/09/20 05:18:32;;;;;;;9.32;6.10;;;;;;;6.66;56.75;100399.31;5059684;28;20040;-76
2021/09/20 05:20:58;;;;;;;7.93;5.65;;;;;;;6.85;56.49;100394.84;5042926;28;20071;-76
2021/09/20 05:23:24;;;;;;;10.63;6.05;;;;;;;6.94;56.70;100386.44;5026055;28;20039;-77
2021/09/20 05:25:50;;;;;;;10.82;6.70;;;;;;;7.13;56.35;100391.72;5093832;28;20174;-75
2021/09/20 05:28:16;;;;;;;10.60;6.25;;;;;;;7.18;56.00;100383.50;5075673;28;20523;-76
2021/09/20 05:30:42;;;;;;;9.18;6.55;;;;;;;7.39;56.31;100393.06;5059020;28;20380;-75
2021/09/20 05:33:08;;;;;;;10.90;6.60;;;;;;;7.63;56.10;100390.97;5075686;28;20046;-75
2021/09/20 05:35:34;;;;;;;10.60;7.55;;;;;;;7.85;55.56;100396.03;5075274;28;20048;-76
2021/09/20 05:37:59;;;;;;;13.90;8.30;;;;;;;7.92;54.64;100396.59;5025897;28;20043;-75
2021/09/20 05:40:25;;;;;;;17.00;8.50;;;;;;;7.99;54.22;100395.34;5075621;28;20528;-76
2021/09/20 05:42:58;;;;;;;13.15;8.57;;;;;;;8.09;54.09;100399.25;5041904;28;20161;-77
2021/09/20 05:45:24;;;;;;;9.18;7.40;;;;;;;7.88;52.54;100411.88;5042803;28;20453;-76
2021/09/20 05:47:50;;;;;;;12.23;8.10;;;;;;;7.70;53.42;100403.00;5093319;28;20050;-75
2021/09/20 05:50:17;;;;;;;11.93;7.70;;;;;;;7.77;53.47;100400.91;5093359;28;20074;-77
2021/09/20 05:52:43;;;;;;;10.82;7.40;;;;;;;7.75;53.18;100405.47;5025567;28;20040;-76
2021/09/20 05:55:09;;;;;;;10.05;7.25;;;;;;;7.79;53.47;100401.72;5058571;28;20552;-76
2021/09/20 05:57:35;;;;;;;12.48;7.82;;;;;;;7.79;53.32;100393.72;5059079;28;20127;-76
2021/09/20 06:00:01;;;;;;;12.38;7.53;;;;;;;7.79;52.85;100401.72;5059015;28;20042;-76
2021/09/20 06:02:36;;;;;;;12.90;7.00;;;;;;;7.94;52.86;100402.72;5061534;28;20047;-76
2021/09/20 06:05:03;;;;;;;11.07;7.38;;;;;;;7.99;53.34;100396.19;5025570;28;20036;-76
2021/09/20 06:07:28;;;;;;;10.23;7.20;;;;;;;8.24;53.00;100398.44;5025551;28;20402;-76
2021/09/20 06:09:54;;;;;;;10.00;6.63;;;;;;;8.57;52.68;100399.34;5042052;28;20040;-75
2021/09/20 06:12:20;;;;;;;9.90;5.20;;;;;;;8.80;51.46;100400.75;5041812;28;20078;-76
2021/09/20 06:14:46;;;;;;;7.43;5.75;;;;;;;9.03;51.49;100397.66;5042008;28;20040;-76
2021/09/20 06:17:12;;;;;;;11.05;5.32;;;;;;;9.22;50.54;100386.81;5058246;28;20098;-76
2021/09/20 06:19:38;;;;;;;15.43;7.07;;;;;;;9.14;49.96;100397.03;5041855;28;20078;-75
2021/09/20 06:22:04;;;;;;;17.67;6.97;;;;;;;8.92;49.92;100389.41;5041327;28;20127;-76
2021/09/20 06:24:30;;;;;;;19.90;8.02;;;;;;;9.00;50.38;100390.69;5025332;28;20032;-77
2021/09/20 06:26:56;;;;;;;9.48;4.80;;;;;;;9.02;48.65;100395.06;5025238;28;20046;-75
2021/09/20 06:29:22;;;;;;;6.15;3.90;;;;;;;8.80;48.79;100390.09;5074856;28;20150;-76
2021/09/20 06:31:48;;;;;;;4.90;4.13;;;;;;;8.85;49.45;100394.22;5025469;28;20063;-76
2021/09/20 06:34:14;;;;;;;8.70;3.92;;;;;;;9.09;48.11;100391.13;5074546;28;20058;-76
2021/09/20 06:36:40;;;;;;;7.63;4.20;;;;;;;8.81;48.34;100387.34;5074809;28;20044;-76
2021/09/20 06:39:07;;;;;;;5.20;4.13;;;;;;;9.16;49.38;100387.16;5025270;28;20150;-76
2021/09/20 06:41:34;;;;;;;4.95;3.92;;;;;;;9.51;48.13;100384.22;5025353;28;20044;-77
2021/09/20 06:44:00;;;;;;;5.47;3.60;;;;;;;9.85;47.74;100386.59;5058417;28;20078;-76
2021/09/20 06:46:26;;;;;;;8.23;3.90;;;;;;;9.81;46.02;100384.22;5041620;28;20036;-75
2021/09/20 06:48:52;;;;;;;7.35;3.63;;;;;;;10.16;46.72;100385.59;5058116;28;20044;-76
2021/09/20 06:51:18;;;;;;;5.63;3.63;;;;;;;10.19;45.16;100379.19;5041746;28;20044;-76
2021/09/20 06:53:44;;;;;;;4.18;3.50;;;;;;;9.95;45.75;100387.75;5074852;28;20131;-75
2021/09/20 06:56:10;;;;;;;6.25;3.40;;;;;;;10.31;46.12;100377.63;5058071;28;20036;-76
2021/09/20 06:58:36;;;;;;;4.00;3.30;;;;;;;10.43;44.90;100383.06;5024960;28;20498;-78
2021/09/20 07:01:02;;;;;;;3.60;2.90;;;;;;;10.56;43.05;100376.94;5041365;28;20513;-76
2021/09/20 07:03:28;;;;;;;5.85;2.88;;;;;;;10.30;42.12;100387.44;5058148;28;20043;-75
2021/09/20 07:05:54;;;;;;;4.03;3.05;;;;;;;10.08;43.16;100376.31;5024917;28;20042;-75
2021/09/20 07:08:20;;;;;;;4.00;2.92;;;;;;;10.38;43.96;100384.28;5041621;28;20044;-76
2021/09/20 07:10:46;;;;;;;3.22;2.90;;;;;;;10.80;44.07;100380.72;5092495;28;20131;-76
2021/09/20 07:13:12;;;;;;;4.82;3.15;;;;;;;11.30;42.64;100387.25;5041299;28;20040;-75
2021/09/20 07:15:38;;;;;;;3.10;2.80;;;;;;;11.55;41.69;100382.94;5057859;28;20116;-76
2021/09/20 07:18:04;;;;;;;4.30;3.70;;;;;;;11.32;41.13;100377.31;5025182;28;20036;-77
2021/09/20 07:20:30;;;;;;;4.45;3.80;;;;;;;11.16;42.46;100381.94;5057993;28;20036;-76
2021/09/20 07:22:57;;;;;;;3.97;3.17;;;;;;;11.27;41.04;100381.25;5024795;28;20031;-76
2021/09/20 07:25:23;;;;;;;4.13;3.22;;;;;;;11.22;41.71;100370.00;5024409;28;20116;-75
2021/09/20 07:27:49;;;;;;;3.95;3.03;;;;;;;11.45;42.08;100374.66;5092244;28;20119;-76
2021/09/20 07:30:17;;;;;;;6.82;4.20;;;;;;;11.90;41.99;100380.56;5057746;28;20068;-75
2021/09/20 07:32:48;;;;;;;7.75;4.32;;;;;;;12.34;41.32;100379.28;5058879;28;20047;-75
2021/09/20 07:35:16;;;;;;;5.95;3.55;;;;;;;12.14;39.79;100380.66;5044107;28;20067;-76
2021/09/20 07:38:00;;;;;;;4.03;3.50;;;;;;;11.47;41.14;100390.59;5061909;28;20048;-76
2021/09/20 07:40:26;;;;;;;6.88;4.15;;;;;;;11.24;42.16;100382.28;5028431;28;20530;-76
2021/09/20 07:42:53;;;;;;;5.85;3.60;;;;;;;10.56;43.23;100392.97;5061609;28;20047;-75
2021/09/20 07:45:19;;;;;;;5.53;3.58;;;;;;;10.27;43.51;100393.00;5028303;28;20469;-76
2021/09/20 07:47:45;;;;;;;4.35;3.50;;;;;;;10.33;43.90;100389.91;5077778;28;20123;-76
2021/09/20 07:50:11;;;;;;;9.40;4.30;;;;;;;10.51;43.71;100381.72;5044885;28;20048;-75
2021/09/20 07:52:39;;;;;;;10.07;4.10;;;;;;;10.56;43.47;100382.28;5045433;28;20036;-76
2021/09/20 07:55:05;;;;;;;5.18;4.10;;;;;;;10.82;43.02;100378.78;5077708;28;20046;-76
2021/09/20 07:57:31;;;;;;;3.83;3.13;;;;;;;10.73;41.86;100386.56;5061021;28;20108;-77
2021/09/20 07:59:57;;;;;;;4.60;3.45;;;;;;;10.61;42.31;100390.88;5061002;28;20040;-76
2021/09/20 08:02:23;;;;;;;5.38;3.58;;;;;;;10.85;42.01;100378.59;5077332;28;20245;-76
2021/09/20 08:04:49;;;;;;;3.80;3.38;;;;;;;10.71;42.00;100386.66;5060525;28;20122;-76
2021/09/20 08:07:15;;;;;;;4.05;3.15;;;;;;;10.49;42.07;100392.50;5077504;28;20128;-76
2021/09/20 08:09:41;;;;;;;5.20;3.42;;;;;;;10.50;42.54;100388.88;5061090;28;20082;-77
2021/09/20 08:12:08;;;;;;;7.03;3.10;;;;;;;10.71;42.14;100386.66;5060787;28;20047;-76
2021/09/20 08:14:34;;;;;;;8.15;3.20;;;;;;;10.54;42.42;100389.56;5027677;28;20042;-75
2021/09/20 08:17:00;;;;;;;5.10;3.17;;;;;;;10.66;42.47;100386.09;5044364;28;20039;-76
2021/09/20 08:19:26;;;;;;;5.35;2.95;;;;;;;10.90;42.46;100383.66;5060660;28;20067;-77
2021/09/20 08:21:51;;;;;;;3.78;3.20;;;;;;;11.23;41.51;100388.63;5044092;28;20040;-76
2021/09/20 08:24:18;;;;;;;3.65;3.35;;;;;;;11.29;41.19;100369.47;5027324;28;20075;-77
2021/09/20 08:26:43;;;;;;;3.70;2.30;;;;;;;11.36;39.96;100373.47;5043936;28;20036;-76
2021/09/20 08:29:09;;;;;;;7.15;2.50;;;;;;;11.51;39.71;100378.72;5043797;28;20394;-76
2021/09/20 08:31:36;;;;;;;3.30;2.38;;;;;;;11.68;40.09;100375.78;5059943;28;20067;-75
2021/09/20 08:34:02;;;;;;;2.63;2.03;;;;;;;11.89;39.93;100376.19;5059673;28;20050;-77
2021/09/20 08:36:27;;;;;;;4.18;2.03;;;;;;;12.29;39.48;100368.84;5059865;28;20055;-76
2021/09/20 08:38:53;;;;;;;2.47;2.10;;;;;;;12.53;38.64;100377.00;5094560;28;20089;-76
2021/09/20 08:41:19;;;;;;;4.15;2.50;;;;;;;12.61;38.63;100363.03;5076536;28;20434;-77
2021/09/20 08:43:45;;;;;;;2.70;2.22;;;;;;;12.61;38.65;100366.56;5076467;28;20200;-76
2021/09/20 08:46:11;;;;;;;4.88;2.55;;;;;;;13.00;38.40;100363.75;5076088;28;20499;-77
2021/09/20 08:48:45;;;;;;;5.72;2.60;;;;;;;13.41;38.33;100357.16;5059323;28;20071;-76
2021/09/20 08:51:11;;;;;;;1.95;1.80;;;;;;;13.30;37.14;100352.59;5043178;28;20036;-76
2021/09/20 08:53:39;;;;;;;6.07;2.80;;;;;;;13.17;37.23;100358.00;5043617;28;20123;-76
2021/09/20 08:56:05;;;;;;;2.45;2.25;;;;;;;13.49;37.45;100360.13;5059984;28;20071;-76
2021/09/20 08:58:31;;;;;;;2.22;2.03;;;;;;;13.80;36.44;100351.44;5026802;28;20044;-78
2021/09/20 09:00:57;;;;;;;3.47;1.90;;;;;;;13.95;35.97;100345.81;5094566;28;20105;-77
2021/09/20 09:03:24;;;;;;;3.42;2.38;;;;;;;14.07;36.10;100358.34;5059617;28;20032;-76
2021/09/20 09:05:50;;;;;;;2.20;2.00;;;;;;;13.87;35.94;100359.00;5059085;28;20145;-77
2021/09/20 09:08:18;;;;;;;8.48;2.10;;;;;;;13.80;35.33;100354.13;5059904;28;20207;-76
2021/09/20 09:10:45;;;;;;;2.47;2.28;;;;;;;13.71;35.35;100365.56;5076352;28;20061;-76
2021/09/20 09:13:13;;;;;;;3.80;2.33;;;;;;;13.59;36.37;100362.00;5076483;28;20035;-75
2021/09/20 09:15:39;;;;;;;2.83;2.38;;;;;;;13.57;35.74;100352.34;5076813;28;20051;-77
2021/09/20 09:18:05;;;;;;;3.25;2.30;;;;;;;13.56;36.04;100350.63;5042903;28;20118;-76
2021/09/20 09:20:35;;;;;;;2.55;2.00;;;;;;;13.40;35.95;100350.09;5059516;28;20076;-77
2021/09/20 09:23:03;;;;;;;3.33;2.30;;;;;;;13.01;36.91;100346.69;5094418;28;20063;-77
2021/09/20 09:25:39;;;;;;;3.15;2.35;;;;;;;13.33;36.97;100349.69;5026756;28;20101;-76
2021/09/20 09:28:18;;;;;;;3.88;2.50;;;;;;;13.44;36.68;100349.72;5094275;28;20123;-77
2021/09/20 09:30:45;;;;;;;6.25;2.95;;;;;;;13.66;36.61;100340.91;5042756;28;20056;-76
2021/09/20 09:33:20;;;;;;;3.65;2.70;;;;;;;13.99;36.22;100352.66;5042828;28;20404;-76
2021/09/20 09:35:51;;;;;;;2.72;2.50;;;;;;;13.87;35.66;100343.75;5060000;28;20052;-77
2021/09/20 09:38:18;;;;;;;3.15;2.50;;;;;;;14.09;35.24;100349.16;5042645;28;20555;-76
2021/09/20 09:40:57;;;;;;;4.72;2.60;;;;;;;14.14;34.86;100330.00;5075417;28;20134;-75
2021/09/20 09:43:37;;;;;;;3.40;2.20;;;;;;;14.38;34.93;100348.69;5075843;28;20036;-77
2021/09/20 09:46:18;;;;;;;1.92;1.73;;;;;;;14.36;34.57;100339.88;5060619;28;20047;-76
2021/09/20 09:48:44;;;;;;;1.90;1.80;;;;;;;14.53;34.68;100341.25;5042224;28;20040;-77
2021/09/20 09:51:10;;;;;;;4.88;2.40;;;;;;;14.91;33.95;100342.66;5058279;28;20040;-76
2021/09/20 09:53:40;;;;;;;3.35;2.35;;;;;;;15.24;33.63;100342.56;5059119;28;20562;-77
2021/09/20 09:56:16;;;;;;;2.22;1.75;;;;;;;15.18;33.88;100337.66;5057575;28;20067;-76
2021/09/20 09:59:02;;;;;;;3.03;1.90;;;;;;;15.82;32.95;100335.94;5075378;28;20085;-76
2021/09/20 10:01:33;;;;;;;3.53;2.72;;;;;;;15.86;32.11;100332.81;5074777;28;20036;-76
2021/09/20 10:04:22;;;;;;;4.97;2.20;;;;;;;15.91;31.97;100336.00;5042605;28;20048;-77
2021/09/20 10:06:53;;;;;;;4.10;2.10;;;;;;;15.74;31.78;100336.59;5058703;28;20032;-76
2021/09/20 10:09:23;;;;;;;1.95;1.80;;;;;;;15.45;32.06;100330.94;5058227;28;20578;-77
2021/09/20 10:11:49;;;;;;;2.95;2.08;;;;;;;15.39;32.19;100340.41;5041686;28;20039;-76
2021/09/20 10:14:16;;;;;;;4.00;2.20;;;;;;;15.73;32.94;100338.44;5058378;28;20085;-76
2021/09/20 10:16:41;;;;;;;7.68;2.17;;;;;;;16.36;32.01;100335.66;5058382;28;20082;-76
2021/09/20 10:19:07;;;;;;;2.90;2.22;;;;;;;16.14;30.53;100330.44;5058343;28;20035;-75
2021/09/20 10:21:33;;;;;;;2.75;2.10;;;;;;;15.99;31.16;100322.69;5041559;28;20597;-77
2021/09/20 10:24:00;;;;;;;3.03;2.30;;;;;;;16.34;30.71;100320.59;5074908;28;20172;-76
2021/09/20 10:26:26;;;;;;;3.65;2.15;;;;;;;16.33;30.78;100326.97;5058463;28;20050;-77
2021/09/20 10:28:54;;;;;;;8.23;2.17;;;;;;;16.87;30.47;100328.44;5057513;28;20379;-76
2021/09/20 10:31:20;;;;;;;3.17;2.20;;;;;;;17.20;30.42;100325.38;5058282;28;20082;-77
2021/09/20 10:33:46;;;;;;;2.65;2.22;;;;;;;17.48;29.66;100325.50;5041740;28;20565;-77
2021/09/20 10:36:12;;;;;;;5.25;2.28;;;;;;;17.45;29.03;100321.25;5041460;28;20138;-78
2021/09/20 10:38:38;;;;;;;1.98;1.80;;;;;;;17.18;29.81;100321.94;5074749;28;20036;-76
2021/09/20 10:41:23;;;;;;;4.43;2.10;;;;;;;17.53;29.28;100325.09;5057973;28;20135;-77
2021/09/20 10:44:06;;;;;;;2.83;1.80;;;;;;;17.60;28.83;100329.78;5025461;28;20035;-77
2021/09/20 10:46:33;;;;;;;1.98;1.73;;;;;;;17.21;29.07;100321.66;5025178;28;20032;-77
2021/09/20 10:49:01;;;;;;;2.88;2.25;;;;;;;17.11;29.00;100318.13;5041775;28;20096;-77
2021/09/20 10:51:35;;;;;;;2.97;2.37;;;;;;;16.74;29.67;100324.16;5058507;28;20067;-76
2021/09/20 10:54:10;;;;;;;3.70;2.20;;;;;;;17.04;29.22;100306.16;5075788;28;20540;-78
2021/09/20 10:56:41;;;;;;;2.40;2.17;;;;;;;17.17;29.26;100309.44;5126490;22;20152;-89
2021/09/20 10:59:26;;;;;;;5.68;2.95;;;;;;;18.00;29.25;100317.06;5003452;28;20080;-89
2021/09/20 11:01:57;;;;;;;2.55;2.30;;;;;;;18.78;28.26;100318.44;5006691;28;20042;-82
2021/09/20 11:04:29;;;;;;;3.50;2.47;;;;;;;18.85;27.57;100316.00;5030258;28;20495;-82
2021/09/20 11:07:25;;;;;;;2.55;2.30;;;;;;;18.81;27.29;100322.72;5024301;28;20851;-85
2021/09/20 11:09:53;;;;;;;2.58;2.08;;;;;;;18.56;27.43;100318.84;5007159;28;20046;-83
2021/09/20 11:12:23;;;;;;;1.93;1.73;;;;;;;18.94;27.28;100328.59;4998561;28;20034;-85
2021/09/20 11:14:52;;;;;;;4.50;2.10;;;;;;;19.08;27.00;100325.38;5015419;28;20049;-82
2021/09/20 11:17:33;;;;;;;2.80;2.00;;;;;;;18.90;27.06;100321.78;4998881;28;20077;-85
2021/09/20 11:20:02;;;;;;;3.15;2.10;;;;;;;18.85;27.09;100324.97;5015018;28;20041;-82
2021/09/20 11:22:29;;;;;;;2.45;2.25;;;;;;;18.31;27.59;100312.22;5002108;28;20056;-84
2021/09/20 11:25:04;;;;;;;4.85;2.40;;;;;;;18.30;27.58;100332.19;4966854;28;20050;-81
2021/09/20 11:27:46;;;;;;;4.68;2.40;;;;;;;18.29;28.13;100334.06;4999528;28;20058;-83
2021/09/20 11:30:15;;;;;;;2.95;1.83;;;;;;;18.60;27.42;100315.66;4982829;28;20157;-86